Lincoln, Nebraska
Current Conditions -  °F | °C
As of 4:54 PM on Saturday 20 Dec 2014 (Local Time) from KLNK Reporting Station
Haze Haze  
Wind Chill: 30°   Ceiling: 1000
Heat Index: 36°   Visibility: 4mi
Dew Point: 31°   Wind: 7mph
Humidity: 82%   Direction: 180°S
Pressure: 30.08"   Gusts: NA
Location:  40.81°N, 96.71°W
Report Text: KLNK 202254Z 18006KT 4SM HZ OVC010 02/M01 A3008 RMK AO2 SLP195 T00221006
Loading
Personal Weather Stations






























Interactive Weather Map New forecast layout! Learn more

10-Day Weather Forecast

Advertisements
Track Severe Weather on mobile